createdAt,value
2022-12-25T00:01:26.697Z,9.90
2022-12-25T00:03:54.124Z,9.95
2022-12-25T00:06:21.805Z,9.93
2022-12-25T00:08:50.327Z,9.90
2022-12-25T00:11:19.638Z,9.91
2022-12-25T00:13:47.899Z,9.95
2022-12-25T00:16:20.715Z,9.90
2022-12-25T00:18:48.720Z,9.88
2022-12-25T00:21:16.214Z,9.75
2022-12-25T00:23:43.781Z,9.72
2022-12-25T00:26:15.409Z,9.67
2022-12-25T00:28:43.122Z,9.66
2022-12-25T00:31:16.086Z,9.57
2022-12-25T00:33:46.231Z,9.58
2022-12-25T00:36:16.412Z,9.70
2022-12-25T00:38:44.340Z,9.69
2022-12-25T00:41:49.279Z,9.75
2022-12-25T00:44:30.578Z,9.68
2022-12-25T00:46:58.505Z,9.79
2022-12-25T00:49:25.886Z,9.86
2022-12-25T00:51:54.437Z,9.85
2022-12-25T00:54:21.895Z,10.01
2022-12-25T00:56:49.398Z,9.85
2022-12-25T00:59:17.249Z,9.86
2022-12-25T01:01:44.805Z,9.73
2022-12-25T01:04:12.651Z,9.77
2022-12-25T01:06:40.285Z,9.86
2022-12-25T01:09:27.630Z,9.90
2022-12-25T01:11:55.365Z,10.00
2022-12-25T01:14:22.733Z,9.92
2022-12-25T01:16:50.219Z,9.87
2022-12-25T01:19:17.537Z,9.87
2022-12-25T01:21:44.874Z,9.80
2022-12-25T01:24:12.740Z,9.80
2022-12-25T01:26:40.215Z,9.88
2022-12-25T01:29:07.511Z,9.65
2022-12-25T01:31:35.320Z,9.48
2022-12-25T01:34:02.673Z,9.50
2022-12-25T01:36:30.435Z,9.64
2022-12-25T01:38:57.831Z,9.55
2022-12-25T01:41:25.457Z,9.37
2022-12-25T01:43:59.683Z,9.61
2022-12-25T01:46:27.752Z,9.69
2022-12-25T01:48:58.865Z,9.68
2022-12-25T01:51:58.732Z,9.77
2022-12-25T01:54:31.514Z,9.67
2022-12-25T01:57:02.870Z,9.83
2022-12-25T01:59:30.444Z,9.84
2022-12-25T02:02:00.144Z,9.82
2022-12-25T02:04:40.045Z,9.95
2022-12-25T02:07:13.344Z,9.97
2022-12-25T02:09:41.421Z,9.89
2022-12-25T02:12:14.997Z,9.84
2022-12-25T02:14:42.531Z,9.88
2022-12-25T02:17:27.959Z,9.84
2022-12-25T02:20:32.666Z,9.95
2022-12-25T02:23:34.737Z,9.97
2022-12-25T02:26:18.325Z,9.88
2022-12-25T02:29:03.590Z,9.84
2022-12-25T02:31:54.192Z,9.71
2022-12-25T02:34:30.748Z,9.76
2022-12-25T02:37:13.227Z,9.84
2022-12-25T02:39:58.673Z,9.82
2022-12-25T02:43:07.917Z,9.83
2022-12-25T02:46:09.680Z,9.89
2022-12-25T02:49:01.022Z,9.72
2022-12-25T02:51:52.054Z,9.66
2022-12-25T02:54:44.805Z,9.65
2022-12-25T02:57:35.077Z,9.81
2022-12-25T03:00:22.528Z,9.84
2022-12-25T03:03:10.757Z,9.69
2022-12-25T03:06:01.112Z,9.81
2022-12-25T03:08:40.177Z,9.83
2022-12-25T03:11:29.518Z,9.79
2022-12-25T03:14:21.629Z,9.82
2022-12-25T03:16:50.961Z,10.00
2022-12-25T03:19:55.094Z,9.94
2022-12-25T03:22:48.310Z,9.92
2022-12-25T03:25:35.733Z,9.95
2022-12-25T03:28:04.417Z,9.90
2022-12-25T03:31:11.231Z,9.85
2022-12-25T03:34:10.220Z,9.83
2022-12-25T03:37:33.328Z,9.83
2022-12-25T03:40:31.633Z,9.74
2022-12-25T03:43:26.429Z,9.75
2022-12-25T03:46:17.304Z,9.66
2022-12-25T03:49:08.787Z,9.63
2022-12-25T03:51:58.089Z,9.08
2022-12-25T03:54:48.007Z,8.93
2022-12-25T03:57:34.003Z,8.93
2022-12-25T04:00:20.269Z,8.93
2022-12-25T04:03:06.524Z,8.97
2022-12-25T04:05:53.351Z,9.05
2022-12-25T04:08:39.088Z,9.35
2022-12-25T04:11:24.979Z,9.54
2022-12-25T04:14:10.922Z,9.58
2022-12-25T04:16:56.854Z,9.22
2022-12-25T04:19:42.732Z,9.23
2022-12-25T04:22:28.738Z,9.18
2022-12-25T04:25:15.026Z,9.22
2022-12-25T04:28:01.304Z,9.05
2022-12-25T04:30:47.748Z,9.12
2022-12-25T04:33:33.652Z,9.07
2022-12-25T04:36:10.148Z,9.20
2022-12-25T04:38:39.289Z,9.31
2022-12-25T04:41:09.146Z,9.29
2022-12-25T04:43:37.249Z,9.34
2022-12-25T04:46:05.106Z,9.39
2022-12-25T04:48:34.803Z,9.20
2022-12-25T04:51:21.224Z,9.19
2022-12-25T04:53:50.412Z,9.11
2022-12-25T04:56:18.218Z,8.96
2022-12-25T04:58:46.049Z,8.88
2022-12-25T05:01:14.716Z,8.96
2022-12-25T05:03:42.836Z,8.84
2022-12-25T05:06:10.482Z,8.91
2022-12-25T05:08:39.857Z,8.90
2022-12-25T05:11:09.782Z,9.02
2022-12-25T05:13:38.312Z,9.05
2022-12-25T05:16:18.484Z,9.12
2022-12-25T05:18:49.583Z,8.92
2022-12-25T05:21:17.740Z,8.86
2022-12-25T05:23:51.346Z,8.89
2022-12-25T05:26:24.329Z,8.77
2022-12-25T05:28:52.138Z,8.79
2022-12-25T05:31:20.021Z,8.67
2022-12-25T05:33:51.658Z,8.80
2022-12-25T05:36:19.393Z,8.74
2022-12-25T05:38:46.755Z,8.70
2022-12-25T05:41:14.169Z,8.72
2022-12-25T05:43:41.479Z,8.73
2022-12-25T05:46:10.323Z,8.77
2022-12-25T05:48:39.056Z,8.96
2022-12-25T05:51:12.045Z,9.15
2022-12-25T05:53:40.041Z,9.31
2022-12-25T05:56:08.540Z,9.35
2022-12-25T05:58:40.413Z,8.92
2022-12-25T06:01:14.946Z,9.12
2022-12-25T06:03:42.455Z,9.19
2022-12-25T06:06:10.382Z,9.24
2022-12-25T06:08:38.270Z,9.33
2022-12-25T06:11:07.891Z,9.17
2022-12-25T06:13:35.742Z,9.23
2022-12-25T06:16:08.323Z,9.40
2022-12-25T06:18:41.309Z,9.30
2022-12-25T06:21:10.897Z,9.38
2022-12-25T06:23:39.073Z,9.42
2022-12-25T06:26:09.114Z,9.38
2022-12-25T06:28:36.991Z,9.32
2022-12-25T06:31:14.713Z,9.38
2022-12-25T06:33:42.835Z,9.41
2022-12-25T06:36:20.070Z,9.22
2022-12-25T06:38:47.857Z,9.00
2022-12-25T06:41:23.721Z,8.73
2022-12-25T06:43:53.155Z,8.72
2022-12-25T06:46:22.299Z,8.72
2022-12-25T06:48:50.243Z,8.76
2022-12-25T06:51:20.139Z,8.79
2022-12-25T06:53:48.985Z,8.64
2022-12-25T06:56:19.972Z,8.51
2022-12-25T06:58:53.098Z,8.48
2022-12-25T07:01:24.579Z,8.44
2022-12-25T07:03:55.172Z,8.72
2022-12-25T07:06:22.998Z,8.76
2022-12-25T07:08:50.505Z,8.97
2022-12-25T07:11:18.028Z,9.17
2022-12-25T07:13:45.792Z,9.40
2022-12-25T07:16:13.976Z,9.52
2022-12-25T07:18:41.923Z,9.59
2022-12-25T07:21:11.954Z,9.70
2022-12-25T07:23:40.144Z,9.69
2022-12-25T07:26:10.772Z,9.73
2022-12-25T07:28:38.860Z,9.84
2022-12-25T07:31:17.077Z,9.83
2022-12-25T07:33:45.617Z,9.85
2022-12-25T07:36:14.399Z,9.82
2022-12-25T07:38:42.518Z,9.87
2022-12-25T07:41:12.809Z,9.95
2022-12-25T07:43:41.130Z,9.93
2022-12-25T07:46:09.870Z,9.86
2022-12-25T07:48:37.478Z,9.83
2022-12-25T07:51:07.753Z,10.05
2022-12-25T07:53:36.174Z,9.93
2022-12-25T07:56:07.127Z,10.02
2022-12-25T07:58:35.146Z,10.01
2022-12-25T08:01:05.489Z,10.14
2022-12-25T08:03:34.949Z,10.01
2022-12-25T08:06:07.566Z,10.01
2022-12-25T08:08:37.482Z,9.84
2022-12-25T08:11:08.265Z,9.68
2022-12-25T08:13:35.919Z,9.82
2022-12-25T08:16:07.921Z,10.03
2022-12-25T08:18:37.005Z,9.94
2022-12-25T08:21:07.095Z,9.76
2022-12-25T08:23:36.382Z,9.90
2022-12-25T08:26:06.051Z,9.84
2022-12-25T08:28:35.560Z,9.98
2022-12-25T08:31:14.912Z,9.94
2022-12-25T08:33:43.083Z,9.89
2022-12-25T08:36:12.095Z,9.77
2022-12-25T08:38:39.827Z,9.74
2022-12-25T08:41:09.727Z,10.01
2022-12-25T08:43:37.467Z,10.09
2022-12-25T08:46:05.448Z,10.22
2022-12-25T08:48:33.457Z,10.28
2022-12-25T08:51:01.867Z,10.33
2022-12-25T08:53:29.723Z,10.19
2022-12-25T08:56:03.749Z,10.05
2022-12-25T08:58:31.043Z,10.22
2022-12-25T09:00:58.530Z,10.29
2022-12-25T09:03:26.359Z,10.31
2022-12-25T09:05:54.656Z,10.42
2022-12-25T09:08:22.293Z,10.50
2022-12-25T09:10:49.950Z,10.44
2022-12-25T09:13:17.293Z,10.62
2022-12-25T09:15:45.036Z,10.54
2022-12-25T09:18:12.479Z,10.71
2022-12-25T09:20:40.170Z,10.74
2022-12-25T09:23:13.568Z,10.73
2022-12-25T09:25:42.156Z,10.87
2022-12-25T09:28:09.854Z,10.96
2022-12-25T09:30:37.628Z,10.91
2022-12-25T09:33:04.977Z,10.58
2022-12-25T09:35:32.270Z,10.58
2022-12-25T09:37:59.538Z,10.59
2022-12-25T09:40:31.170Z,10.18
2022-12-25T09:42:59.488Z,10.47
2022-12-25T09:45:37.771Z,10.74
2022-12-25T09:48:05.816Z,10.83
2022-12-25T09:50:52.159Z,10.83
2022-12-25T09:53:24.112Z,10.43
2022-12-25T09:56:07.107Z,10.67
2022-12-25T09:58:34.844Z,10.62
2022-12-25T10:01:15.886Z,10.24
2022-12-25T10:03:49.907Z,10.59
2022-12-25T10:06:24.942Z,10.70
2022-12-25T10:09:23.144Z,10.76
2022-12-25T10:12:09.386Z,10.84
2022-12-25T10:15:03.310Z,10.52
2022-12-25T10:17:45.864Z,10.68
2022-12-25T10:20:27.962Z,10.15
2022-12-25T10:22:58.441Z,9.96
2022-12-25T10:25:26.056Z,9.94
2022-12-25T10:28:01.709Z,9.86
2022-12-25T10:30:30.818Z,10.07
2022-12-25T10:32:58.958Z,10.26
2022-12-25T10:35:29.819Z,10.23
2022-12-25T10:38:02.621Z,10.49
2022-12-25T10:40:44.724Z,10.52
2022-12-25T10:43:17.160Z,10.61
2022-12-25T10:45:47.297Z,10.42
2022-12-25T10:48:43.230Z,10.19
2022-12-25T10:51:11.667Z,10.54
2022-12-25T10:53:42.344Z,10.66
2022-12-25T10:56:19.879Z,10.35
2022-12-25T10:58:47.253Z,10.68
2022-12-25T11:01:15.244Z,10.41
2022-12-25T11:03:51.149Z,10.44
2022-12-25T11:06:24.577Z,10.62
2022-12-25T11:08:55.669Z,10.71
2022-12-25T11:11:24.189Z,10.51
2022-12-25T11:13:55.292Z,10.46
2022-12-25T11:16:29.838Z,10.86
2022-12-25T11:18:58.761Z,10.82
2022-12-25T11:21:35.172Z,10.32
2022-12-25T11:24:18.021Z,10.55
2022-12-25T11:26:51.627Z,10.74
2022-12-25T11:29:43.588Z,10.83
2022-12-25T11:32:19.232Z,10.52
2022-12-25T11:34:48.975Z,10.34
2022-12-25T11:37:32.685Z,10.33
2022-12-25T11:40:00.592Z,10.31
2022-12-25T11:43:08.007Z,10.16
2022-12-25T11:45:39.246Z,10.09
2022-12-25T11:48:18.216Z,9.86
2022-12-25T11:50:51.544Z,9.97
2022-12-25T11:53:37.366Z,10.10
2022-12-25T11:56:10.811Z,9.89
2022-12-25T11:58:52.011Z,9.71
2022-12-25T12:01:44.341Z,9.95
2022-12-25T12:04:29.088Z,10.10
2022-12-25T12:07:09.335Z,10.07
2022-12-25T12:10:19.154Z,10.05
2022-12-25T12:12:49.000Z,10.36
2022-12-25T12:15:35.943Z,10.37
2022-12-25T12:18:27.852Z,10.28
2022-12-25T12:21:01.270Z,10.37
2022-12-25T12:23:33.661Z,10.44
2022-12-25T12:26:01.719Z,10.20
2022-12-25T12:28:44.685Z,10.55
2022-12-25T12:31:15.047Z,10.09
2022-12-25T12:33:56.160Z,9.86
2022-12-25T12:36:35.593Z,10.02
2022-12-25T12:39:05.717Z,9.89
2022-12-25T12:41:48.712Z,10.07
2022-12-25T12:44:17.911Z,10.08
2022-12-25T12:46:56.935Z,10.23
2022-12-25T12:49:32.469Z,10.02
2022-12-25T12:52:06.008Z,9.99
2022-12-25T12:54:33.651Z,10.08
2022-12-25T12:57:02.998Z,10.40
2022-12-25T12:59:43.427Z,10.15
2022-12-25T13:02:39.519Z,9.89
2022-12-25T13:05:34.650Z,9.90
2022-12-25T13:08:28.490Z,10.11
2022-12-25T13:11:19.152Z,9.88
2022-12-25T13:13:48.211Z,10.44
2022-12-25T13:16:24.530Z,10.42
2022-12-25T13:18:54.132Z,10.16
2022-12-25T13:21:27.449Z,10.09
2022-12-25T13:24:00.737Z,9.90
2022-12-25T13:26:29.819Z,9.95
2022-12-25T13:28:57.561Z,9.79
2022-12-25T13:31:28.103Z,9.87
2022-12-25T13:34:31.312Z,9.76
2022-12-25T13:37:05.963Z,9.77
2022-12-25T13:39:35.836Z,9.88
2022-12-25T13:42:09.532Z,9.99
2022-12-25T13:44:42.740Z,9.84
2022-12-25T13:47:25.758Z,9.82
2022-12-25T13:49:55.910Z,9.84
2022-12-25T13:52:32.437Z,9.94
2022-12-25T13:55:01.898Z,9.85
2022-12-25T13:57:33.805Z,9.86
2022-12-25T14:00:01.829Z,9.81
2022-12-25T14:02:37.291Z,9.76
2022-12-25T14:05:27.964Z,10.04
2022-12-25T14:07:58.336Z,10.26
2022-12-25T14:10:29.517Z,10.20
2022-12-25T14:13:00.982Z,10.04
2022-12-25T14:15:31.345Z,10.38
2022-12-25T14:17:59.854Z,10.08
2022-12-25T14:20:37.031Z,10.08
2022-12-25T14:23:05.076Z,9.96
2022-12-25T14:25:45.493Z,9.89
2022-12-25T14:28:26.731Z,9.73
2022-12-25T14:30:55.027Z,9.67
2022-12-25T14:33:25.166Z,9.78
2022-12-25T14:35:52.877Z,9.65
2022-12-25T14:38:27.327Z,9.67
2022-12-25T14:41:07.680Z,9.82
2022-12-25T14:43:36.401Z,9.66
2022-12-25T14:46:06.546Z,9.73
2022-12-25T14:48:34.202Z,9.79
2022-12-25T14:51:18.823Z,9.64
2022-12-25T14:53:49.614Z,9.81
2022-12-25T14:56:20.246Z,9.63
2022-12-25T14:58:51.635Z,9.63
2022-12-25T15:01:27.066Z,9.60
2022-12-25T15:04:10.725Z,9.66
2022-12-25T15:06:54.117Z,9.60
2022-12-25T15:09:21.856Z,9.59
2022-12-25T15:11:55.426Z,9.66
2022-12-25T15:14:24.588Z,9.65
2022-12-25T15:17:01.629Z,9.53
2022-12-25T15:19:38.263Z,9.55
2022-12-25T15:22:06.355Z,9.52
2022-12-25T15:24:33.764Z,9.50
2022-12-25T15:27:01.590Z,9.65
2022-12-25T15:32:20.176Z,9.55
2022-12-25T15:34:49.965Z,9.52
2022-12-25T15:37:19.018Z,9.50
2022-12-25T15:39:46.700Z,9.52
2022-12-25T15:42:17.724Z,9.66
2022-12-25T15:44:45.422Z,9.48
2022-12-25T15:47:14.049Z,9.41
2022-12-25T15:49:42.384Z,9.46
2022-12-25T15:52:15.574Z,9.83
2022-12-25T15:54:42.909Z,10.07
2022-12-25T15:57:18.017Z,9.87
2022-12-25T15:59:46.233Z,9.62
2022-12-25T16:02:19.771Z,9.61
2022-12-25T16:04:47.491Z,9.80
2022-12-25T16:07:16.897Z,10.18
2022-12-25T16:09:44.985Z,10.11
2022-12-25T16:12:12.466Z,10.20
2022-12-25T16:14:39.873Z,10.20
2022-12-25T16:17:07.856Z,10.06
2022-12-25T16:19:35.220Z,10.38
2022-12-25T16:22:11.427Z,10.48
2022-12-25T16:24:38.777Z,10.50
2022-12-25T16:27:06.628Z,10.33
2022-12-25T16:29:34.032Z,10.50
2022-12-25T16:32:01.551Z,10.13
2022-12-25T16:34:29.514Z,10.42
2022-12-25T16:36:56.901Z,10.20
2022-12-25T16:39:24.311Z,10.08
2022-12-25T16:41:51.701Z,10.19
2022-12-25T16:44:19.842Z,10.00
2022-12-25T16:46:47.655Z,9.59
2022-12-25T16:49:15.196Z,9.69
2022-12-25T16:51:42.586Z,9.79
2022-12-25T16:54:10.316Z,9.87
2022-12-25T16:56:38.411Z,9.87
2022-12-25T16:59:05.663Z,9.87
2022-12-25T17:01:33.186Z,10.08
2022-12-25T17:04:04.056Z,9.89
2022-12-25T17:06:31.486Z,9.81
2022-12-25T17:09:00.390Z,9.90
2022-12-25T17:11:30.187Z,10.13
2022-12-25T17:14:02.022Z,9.79
2022-12-25T17:16:32.217Z,9.73
2022-12-25T17:19:04.224Z,10.07
2022-12-25T17:21:35.081Z,9.88
2022-12-25T17:24:04.130Z,9.81
2022-12-25T17:26:33.510Z,9.84
2022-12-25T17:29:01.486Z,10.24
2022-12-25T17:31:29.999Z,10.21
2022-12-25T17:33:59.672Z,10.07
2022-12-25T17:36:27.952Z,9.78
2022-12-25T17:38:55.761Z,9.46
2022-12-25T17:41:23.188Z,9.50
2022-12-25T17:43:51.027Z,9.64
2022-12-25T17:46:21.030Z,9.33
2022-12-25T17:48:52.338Z,9.48
2022-12-25T17:51:23.761Z,9.31
2022-12-25T17:53:53.620Z,9.19
2022-12-25T17:56:23.054Z,9.17
2022-12-25T17:58:52.802Z,9.21
2022-12-25T18:01:21.627Z,9.28
2022-12-25T18:03:50.118Z,9.41
2022-12-25T18:06:20.441Z,9.25
2022-12-25T18:08:48.843Z,9.25
2022-12-25T18:11:20.628Z,9.35
2022-12-25T18:13:49.960Z,9.57
2022-12-25T18:16:19.652Z,9.68
2022-12-25T18:18:51.975Z,9.54
2022-12-25T18:21:22.295Z,9.45
2022-12-25T18:23:50.238Z,9.60
2022-12-25T18:26:18.852Z,9.36
2022-12-25T18:28:47.750Z,9.63
2022-12-25T18:31:17.894Z,9.77
2022-12-25T18:33:46.287Z,9.32
2022-12-25T18:36:16.238Z,9.81
2022-12-25T18:38:43.714Z,9.81
2022-12-25T18:41:11.478Z,9.70
2022-12-25T18:43:52.813Z,10.01
2022-12-25T18:46:27.329Z,10.09
2022-12-25T18:48:56.862Z,9.53
2022-12-25T18:51:24.574Z,9.31
2022-12-25T18:53:52.410Z,9.30
2022-12-25T18:56:20.558Z,9.14
2022-12-25T18:58:48.548Z,9.09
2022-12-25T19:01:22.836Z,9.06
2022-12-25T19:03:53.879Z,9.01
2022-12-25T19:06:27.504Z,8.95
2022-12-25T19:08:56.284Z,8.95
2022-12-25T19:11:24.119Z,9.00
2022-12-25T19:13:51.489Z,9.16
2022-12-25T19:16:20.043Z,9.04
2022-12-25T19:18:48.470Z,9.14
2022-12-25T19:21:16.132Z,9.56
2022-12-25T19:23:43.526Z,9.77
2022-12-25T19:26:11.491Z,9.39
2022-12-25T19:28:39.635Z,9.28
2022-12-25T19:31:08.739Z,9.52
2022-12-25T19:33:42.118Z,9.73
2022-12-25T19:36:14.694Z,9.64
2022-12-25T19:38:43.669Z,9.65
2022-12-25T19:41:16.933Z,9.42
2022-12-25T19:43:47.847Z,9.19
2022-12-25T19:46:18.804Z,9.29
2022-12-25T19:48:46.908Z,9.13
2022-12-25T19:51:25.810Z,9.12
2022-12-25T19:53:56.792Z,9.16
2022-12-25T19:56:28.785Z,9.26
2022-12-25T19:58:56.962Z,9.34
2022-12-25T20:01:26.550Z,9.23
2022-12-25T20:03:54.551Z,9.00
2022-12-25T20:06:26.255Z,9.22
2022-12-25T20:08:57.766Z,9.12
2022-12-25T20:11:27.852Z,9.16
2022-12-25T20:13:55.725Z,8.97
2022-12-25T20:16:23.780Z,9.10
2022-12-25T20:18:51.875Z,9.15
2022-12-25T20:21:21.908Z,9.08
2022-12-25T20:23:51.479Z,9.16
2022-12-25T20:26:21.560Z,8.98
2022-12-25T20:28:48.996Z,8.91
2022-12-25T20:31:23.083Z,8.95
2022-12-25T20:33:50.819Z,8.87
2022-12-25T20:36:18.926Z,8.93
2022-12-25T20:38:46.486Z,8.89
2022-12-25T20:41:27.918Z,9.16
2022-12-25T20:43:56.798Z,9.01
2022-12-25T20:46:25.554Z,9.01
2022-12-25T20:48:53.708Z,9.11
2022-12-25T20:51:23.508Z,9.08
2022-12-25T20:53:51.342Z,9.39
2022-12-25T20:56:21.706Z,9.53
2022-12-25T20:58:53.967Z,9.67
2022-12-25T21:01:22.120Z,9.21
2022-12-25T21:03:49.903Z,9.11
2022-12-25T21:06:18.437Z,9.20
2022-12-25T21:08:46.202Z,9.36
2022-12-25T21:11:15.693Z,9.52
2022-12-25T21:13:45.774Z,9.23
2022-12-25T21:16:18.283Z,9.13
2022-12-25T21:18:46.806Z,9.26
2022-12-25T21:21:15.037Z,9.41
2022-12-25T21:23:43.058Z,9.20
2022-12-25T21:26:18.953Z,9.23
2022-12-25T21:28:51.796Z,9.09
2022-12-25T21:31:20.079Z,9.06
2022-12-25T21:33:53.884Z,8.94
2022-12-25T21:36:21.679Z,9.02
2022-12-25T21:38:53.376Z,9.14
2022-12-25T21:41:20.741Z,9.11
2022-12-25T21:43:48.078Z,9.02
2022-12-25T21:46:16.419Z,9.03
2022-12-25T21:48:46.322Z,9.13
2022-12-25T21:51:39.472Z,9.26
2022-12-25T21:54:07.373Z,9.73
2022-12-25T21:56:43.588Z,9.89
2022-12-25T21:59:21.396Z,9.68
2022-12-25T22:01:50.962Z,9.23
2022-12-25T22:04:20.415Z,9.23
2022-12-25T22:07:06.827Z,9.21
2022-12-25T22:09:35.018Z,9.28
2022-12-25T22:12:21.522Z,9.04
2022-12-25T22:14:56.829Z,9.15
2022-12-25T22:17:49.177Z,9.13
2022-12-25T22:20:31.437Z,9.06
2022-12-25T22:22:59.196Z,8.97
2022-12-25T22:25:27.229Z,8.95
2022-12-25T22:27:54.573Z,9.04
2022-12-25T22:30:28.067Z,9.00
2022-12-25T22:32:56.700Z,9.16
2022-12-25T22:35:24.406Z,9.24
2022-12-25T22:37:53.407Z,9.18
2022-12-25T22:40:21.434Z,9.01
2022-12-25T22:42:49.188Z,9.16
2022-12-25T22:45:16.957Z,9.01
2022-12-25T22:47:44.311Z,9.20
2022-12-25T22:50:14.758Z,9.12
2022-12-25T22:52:42.329Z,9.06
2022-12-25T22:55:10.499Z,8.99
2022-12-25T22:57:37.759Z,8.99
2022-12-25T23:00:08.814Z,9.02
2022-12-25T23:02:36.550Z,9.12
2022-12-25T23:05:04.896Z,9.35
2022-12-25T23:07:32.267Z,9.19
2022-12-25T23:10:00.093Z,9.12
2022-12-25T23:12:45.851Z,9.57
2022-12-25T23:15:13.653Z,9.33
2022-12-25T23:17:59.627Z,9.43
2022-12-25T23:20:45.915Z,9.36
2022-12-25T23:23:33.451Z,9.25
2022-12-25T23:26:09.713Z,9.17
2022-12-25T23:28:56.834Z,9.27
2022-12-25T23:31:28.950Z,9.15
2022-12-25T23:33:57.160Z,9.26
2022-12-25T23:36:24.599Z,9.13
2022-12-25T23:38:51.977Z,9.12
2022-12-25T23:41:19.449Z,8.97
2022-12-25T23:43:46.830Z,8.97
2022-12-25T23:46:14.365Z,9.06
2022-12-25T23:48:42.257Z,9.15
2022-12-25T23:51:09.755Z,9.26
2022-12-25T23:53:37.596Z,9.08
2022-12-25T23:56:05.870Z,8.95
2022-12-25T23:58:34.176Z,8.89
